Time;durP1;ratioP1;P1;durP2;ratioP2;P2;SDS_P1;SDS_P2;PMS_P1;PMS_P2;Temp;Humidity;BMP_temperature;BMP_pressure;BME280_temperature;BME280_humidity;BME280_pressure;Samples;Min_cycle;Max_cycle;Signal;HPM_P1;HPM_P2
2020/12/07 00:01:47;;;;;;;52.30;28.08;;;;;;;8.60;69.87;99053.25;4974256;28;20101;-83
2020/12/07 00:04:13;;;;;;;50.33;27.20;;;;;;;8.38;70.15;99048.88;4986587;28;20026;-83
2020/12/07 00:06:38;;;;;;;58.78;27.85;;;;;;;8.32;70.37;99040.56;4985451;28;20034;-84
2020/12/07 00:09:06;;;;;;;59.35;28.13;;;;;;;8.54;70.04;99046.72;4973161;28;20038;-83
2020/12/07 00:11:32;;;;;;;56.95;29.45;;;;;;;8.43;70.53;99041.50;4974144;28;20488;-83
2020/12/07 00:13:58;;;;;;;50.83;26.33;;;;;;;8.46;70.14;99047.34;4973896;28;20023;-83
2020/12/07 00:16:23;;;;;;;53.83;26.90;;;;;;;8.39;70.48;99037.44;4974263;28;20034;-83
2020/12/07 00:18:48;;;;;;;53.50;26.75;;;;;;;8.38;70.57;99034.00;4972679;28;20113;-83
2020/12/07 00:21:14;;;;;;;54.72;28.17;;;;;;;8.51;70.58;99036.50;4974033;28;20097;-83
2020/12/07 00:23:39;;;;;;;50.35;25.80;;;;;;;8.53;70.40;99029.34;4973871;28;20031;-83
2020/12/07 00:26:10;;;;;;;41.22;21.20;;;;;;;8.58;70.43;99024.56;4973683;28;20034;-83
2020/12/07 00:28:37;;;;;;;53.70;27.07;;;;;;;8.42;69.84;99018.94;4973749;28;20078;-83
2020/12/07 00:31:06;;;;;;;45.55;24.05;;;;;;;8.33;70.89;99031.78;4973575;28;20271;-83
2020/12/07 00:33:32;;;;;;;46.47;21.95;;;;;;;8.48;70.62;99026.28;4980515;28;20081;-83
2020/12/07 00:35:57;;;;;;;51.92;25.25;;;;;;;8.44;69.62;99017.84;4993493;28;20038;-83
2020/12/07 00:38:23;;;;;;;49.38;24.58;;;;;;;8.40;69.80;99020.81;4992977;28;20527;-83
2020/12/07 00:40:48;;;;;;;56.92;27.17;;;;;;;8.42;70.21;99021.56;4993162;28;20026;-83
2020/12/07 00:43:14;;;;;;;55.75;27.17;;;;;;;8.31;70.65;99018.00;4993057;28;20388;-84
2020/12/07 00:45:39;;;;;;;45.88;23.15;;;;;;;8.17;71.57;99004.38;4992925;28;20084;-84
2020/12/07 00:48:05;;;;;;;52.58;23.55;;;;;;;8.21;70.70;99011.00;4987147;28;20027;-84
2020/12/07 00:50:30;;;;;;;42.08;21.38;;;;;;;8.35;70.78;99000.25;4973465;28;20520;-83
2020/12/07 00:52:55;;;;;;;49.90;23.13;;;;;;;8.36;71.48;99001.09;4973427;28;20030;-83
2020/12/07 00:55:21;;;;;;;38.95;22.05;;;;;;;8.22;69.93;99003.03;4973439;28;20118;-84
2020/12/07 00:57:46;;;;;;;45.33;21.55;;;;;;;8.23;70.52;99001.25;4973341;28;20477;-84
2020/12/07 01:00:12;;;;;;;53.65;22.08;;;;;;;8.12;70.47;98999.50;4973327;28;20030;-84
2020/12/07 01:02:37;;;;;;;44.67;21.98;;;;;;;8.13;71.39;98983.69;4976674;28;20030;-83
2020/12/07 01:05:03;;;;;;;52.47;21.33;;;;;;;8.10;71.15;98998.81;4992393;28;20030;-84
2020/12/07 01:07:28;;;;;;;42.55;19.88;;;;;;;8.07;70.88;99004.25;4992644;28;20034;-83
2020/12/07 01:09:54;;;;;;;46.13;22.35;;;;;;;8.08;71.27;99001.53;4992689;28;20384;-83
2020/12/07 01:12:19;;;;;;;44.15;19.23;;;;;;;8.27;70.27;98990.44;4992611;28;20117;-83
2020/12/07 01:14:46;;;;;;;45.65;19.92;;;;;;;8.19;71.00;98995.44;4992484;28;20030;-84
2020/12/07 01:17:12;;;;;;;38.58;18.42;;;;;;;8.09;71.96;98990.13;4990119;28;20113;-83
2020/12/07 01:19:38;;;;;;;34.28;14.63;;;;;;;8.07;70.69;98989.41;4973042;28;20038;-84
2020/12/07 01:22:03;;;;;;;36.92;17.23;;;;;;;8.04;70.45;98991.47;4972916;28;20031;-84
2020/12/07 01:24:29;;;;;;;36.00;15.73;;;;;;;8.01;71.20;98996.91;4972948;28;20374;-83
2020/12/07 01:26:54;;;;;;;30.20;12.85;;;;;;;8.16;70.54;98987.03;4972879;28;20026;-84
2020/12/07 01:29:19;;;;;;;34.97;14.98;;;;;;;8.00;71.25;98992.63;4973177;28;20026;-84
2020/12/07 01:31:45;;;;;;;45.70;16.25;;;;;;;7.95;71.61;98990.41;4973545;28;20023;-83
2020/12/07 01:34:10;;;;;;;34.03;15.65;;;;;;;8.04;71.37;98989.66;4976051;28;20102;-83
2020/12/07 01:36:35;;;;;;;34.75;15.85;;;;;;;8.01;71.33;98976.00;4973369;28;20086;-83
2020/12/07 01:39:01;;;;;;;43.67;16.55;;;;;;;7.96;70.58;98971.16;4973040;28;20460;-84
2020/12/07 01:41:26;;;;;;;35.33;14.65;;;;;;;8.01;70.90;98970.78;4972794;28;20027;-84
2020/12/07 01:43:52;;;;;;;27.50;13.80;;;;;;;8.08;71.33;98967.56;4972862;28;20035;-83
2020/12/07 01:46:22;;;;;;;50.53;16.40;;;;;;;7.98;70.64;98964.03;4972639;28;20030;-84
2020/12/07 01:48:48;;;;;;;45.85;17.73;;;;;;;7.98;71.44;98969.25;4976527;28;20092;-83
2020/12/07 01:51:17;;;;;;;42.75;18.13;;;;;;;8.05;71.26;98965.16;4972855;28;20512;-83
2020/12/07 01:53:44;;;;;;;35.45;17.27;;;;;;;7.98;70.97;98964.03;4972865;28;20023;-84
2020/12/07 01:56:19;;;;;;;34.50;15.70;;;;;;;8.11;71.20;98966.47;4972684;28;20081;-83
2020/12/07 01:58:44;;;;;;;37.83;15.82;;;;;;;8.07;71.75;98957.22;4972952;28;20081;-83
2020/12/07 02:01:09;;;;;;;30.45;15.25;;;;;;;8.16;71.14;98956.47;4972903;28;20031;-83
2020/12/07 02:03:35;;;;;;;31.67;15.02;;;;;;;8.17;71.96;98959.91;4983502;28;20069;-83
2020/12/07 02:06:00;;;;;;;42.10;18.00;;;;;;;8.15;70.70;98949.56;4992177;28;20031;-83
2020/12/07 02:08:26;;;;;;;35.00;15.32;;;;;;;8.11;71.03;98943.75;4992570;28;20424;-83
2020/12/07 02:10:51;;;;;;;30.63;13.07;;;;;;;8.15;71.33;98941.72;4998885;28;20046;-83
2020/12/07 02:13:16;;;;;;;30.63;15.48;;;;;;;8.11;70.87;98932.47;5000675;28;20029;-83
2020/12/07 02:15:42;;;;;;;27.23;12.30;;;;;;;8.15;70.42;98931.28;4995531;28;20022;-84
2020/12/07 02:18:08;;;;;;;25.48;11.60;;;;;;;8.17;70.81;98931.97;4991227;28;20033;-83
2020/12/07 02:20:34;;;;;;;25.45;12.00;;;;;;;8.21;71.01;98929.94;4991964;28;20114;-83
2020/12/07 02:22:59;;;;;;;28.35;12.52;;;;;;;8.11;69.88;98915.00;4991940;28;20022;-84
2020/12/07 02:25:25;;;;;;;24.70;10.70;;;;;;;8.20;70.81;98915.22;4992041;28;20030;-83
2020/12/07 02:27:51;;;;;;;24.75;12.15;;;;;;;8.10;69.79;98909.91;4991950;28;20031;-83
2020/12/07 02:30:18;;;;;;;30.10;13.18;;;;;;;8.10;70.31;98904.69;4991905;28;20385;-84
2020/12/07 02:32:45;;;;;;;25.23;11.25;;;;;;;8.15;70.93;98902.50;4984840;28;20125;-83
2020/12/07 02:35:11;;;;;;;29.95;13.75;;;;;;;8.02;70.88;98887.03;4976500;28;20023;-83
2020/12/07 02:37:37;;;;;;;33.08;14.90;;;;;;;8.08;70.81;98901.38;4975820;28;20038;-83
2020/12/07 02:40:05;;;;;;;25.30;11.68;;;;;;;8.12;70.45;98902.78;4975980;28;20055;-84
2020/12/07 02:42:32;;;;;;;28.67;13.25;;;;;;;8.14;70.14;98901.69;4975983;28;20037;-84
2020/12/07 02:45:08;;;;;;;30.17;12.73;;;;;;;7.97;70.61;98898.81;4975678;28;20469;-83
2020/12/07 02:47:34;;;;;;;35.50;14.70;;;;;;;7.97;69.66;98890.97;4984161;28;20034;-83
2020/12/07 02:50:00;;;;;;;28.85;12.50;;;;;;;7.78;70.80;98883.75;4995106;28;20465;-84
2020/12/07 02:52:27;;;;;;;28.67;13.60;;;;;;;7.78;70.75;98884.63;4995176;28;20049;-83
2020/12/07 02:54:56;;;;;;;22.52;11.45;;;;;;;7.79;70.31;98883.66;4995213;28;20109;-84
2020/12/07 02:57:22;;;;;;;23.52;10.85;;;;;;;7.85;69.90;98880.53;4995027;28;20030;-83
2020/12/07 02:59:49;;;;;;;27.85;12.45;;;;;;;7.69;70.50;98882.75;4994998;28;20045;-83
2020/12/07 03:02:14;;;;;;;40.28;13.95;;;;;;;7.42;71.28;98878.75;4986275;28;20392;-84
2020/12/07 03:04:40;;;;;;;29.40;12.52;;;;;;;7.62;71.37;98871.97;4975170;28;20105;-84
2020/12/07 03:07:05;;;;;;;23.20;11.95;;;;;;;7.52;71.05;98866.66;4975093;28;20030;-84
2020/12/07 03:09:31;;;;;;;25.38;10.57;;;;;;;7.49;71.36;98848.59;4975273;28;20099;-84
2020/12/07 03:11:56;;;;;;;25.90;10.73;;;;;;;7.42;71.59;98847.41;4975503;28;20023;-84
2020/12/07 03:14:21;;;;;;;28.95;12.90;;;;;;;7.28;71.23;98855.53;4975211;28;20102;-84
2020/12/07 03:16:47;;;;;;;19.67;10.23;;;;;;;7.29;70.25;98850.19;4976119;28;20113;-84
2020/12/07 03:19:12;;;;;;;28.15;13.13;;;;;;;6.94;71.60;98852.94;4974847;28;20022;-84
2020/12/07 03:21:38;;;;;;;26.23;10.60;;;;;;;7.01;71.61;98842.84;4975205;28;20019;-84
2020/12/07 03:24:05;;;;;;;26.77;12.60;;;;;;;6.95;71.57;98839.78;4975166;28;20077;-83
2020/12/07 03:26:34;;;;;;;19.00;9.52;;;;;;;6.91;71.34;98832.31;4974832;28;20037;-84
2020/12/07 03:29:02;;;;;;;17.25;9.18;;;;;;;6.85;70.90;98845.81;4975092;28;20084;-84
2020/12/07 03:31:29;;;;;;;18.73;9.35;;;;;;;6.70;71.49;98840.84;4981127;28;20065;-84
2020/12/07 03:33:54;;;;;;;19.73;10.07;;;;;;;6.64;71.41;98835.28;4994354;28;20027;-84
2020/12/07 03:36:20;;;;;;;15.98;8.13;;;;;;;6.68;71.45;98847.16;4994781;28;20046;-84
2020/12/07 03:38:45;;;;;;;15.15;7.75;;;;;;;6.70;70.74;98848.69;4994308;28;20018;-83
2020/12/07 03:41:10;;;;;;;20.02;9.30;;;;;;;6.72;71.76;98835.53;4994247;28;20100;-83
2020/12/07 03:43:36;;;;;;;19.50;10.30;;;;;;;6.77;71.14;98845.59;4992656;28;20038;-84
2020/12/07 03:46:01;;;;;;;20.48;11.00;;;;;;;6.75;71.44;98837.88;4994073;28;20034;-83
2020/12/07 03:48:27;;;;;;;20.73;11.45;;;;;;;6.73;71.50;98835.41;4994241;28;20149;-83
2020/12/07 03:50:52;;;;;;;24.50;11.82;;;;;;;6.77;72.03;98829.94;4994038;28;20388;-83
2020/12/07 03:53:17;;;;;;;20.60;11.48;;;;;;;6.76;71.06;98829.13;4993968;28;20022;-84
2020/12/07 03:55:43;;;;;;;19.73;10.60;;;;;;;6.77;71.06;98820.31;4994348;28;20098;-83
2020/12/07 03:58:08;;;;;;;19.05;9.70;;;;;;;6.77;71.43;98822.13;4978131;28;20030;-84
2020/12/07 04:00:33;;;;;;;19.33;8.88;;;;;;;6.73;71.05;98822.38;4974843;28;20070;-84
2020/12/07 04:03:01;;;;;;;21.00;10.77;;;;;;;6.50;71.42;98823.31;4973185;28;20038;-83
2020/12/07 04:05:35;;;;;;;27.58;11.88;;;;;;;6.43;71.06;98816.88;4974407;28;20027;-83
2020/12/07 04:08:00;;;;;;;23.08;11.65;;;;;;;6.37;72.18;98823.41;4974629;28;20029;-84
2020/12/07 04:10:25;;;;;;;24.52;11.00;;;;;;;6.51;71.81;98823.16;4973094;28;20035;-83
2020/12/07 04:12:51;;;;;;;17.75;10.30;;;;;;;6.52;71.32;98816.19;4988856;28;20096;-84
2020/12/07 04:15:16;;;;;;;19.10;10.00;;;;;;;6.48;71.36;98814.78;4993694;28;20109;-83
2020/12/07 04:17:41;;;;;;;25.83;11.35;;;;;;;6.48;72.09;98820.00;4993362;28;20053;-84
2020/12/07 04:20:07;;;;;;;23.02;11.18;;;;;;;6.45;71.30;98815.81;4993442;28;20105;-84
2020/12/07 04:22:32;;;;;;;25.27;11.38;;;;;;;6.43;71.24;98820.31;4993341;28;20026;-83
2020/12/07 04:24:57;;;;;;;22.38;11.43;;;;;;;6.41;71.69;98819.59;4993284;28;20022;-83
2020/12/07 04:27:23;;;;;;;29.42;14.05;;;;;;;6.44;71.90;98815.94;4978335;28;20080;-83
2020/12/07 04:29:48;;;;;;;20.25;10.75;;;;;;;6.48;71.05;98813.00;4973953;28;20023;-84
2020/12/07 04:32:14;;;;;;;20.92;10.25;;;;;;;6.40;71.15;98822.31;4973856;28;20031;-83
2020/12/07 04:34:39;;;;;;;23.20;12.07;;;;;;;6.10;69.71;98813.25;4973945;28;20027;-83
2020/12/07 04:37:05;;;;;;;24.63;12.50;;;;;;;5.88;71.29;98811.41;4974161;28;20081;-84
2020/12/07 04:39:30;;;;;;;20.55;10.68;;;;;;;5.99;70.89;98813.25;4973831;28;20113;-83
2020/12/07 04:41:57;;;;;;;21.67;11.80;;;;;;;5.95;70.78;98805.66;4985260;28;20034;-83
2020/12/07 04:44:23;;;;;;;27.17;13.02;;;;;;;5.77;71.91;98807.00;4993560;28;20022;-83
2020/12/07 04:46:49;;;;;;;25.60;14.15;;;;;;;5.93;71.56;98806.69;4992834;28;20053;-83
2020/12/07 04:49:15;;;;;;;24.77;13.23;;;;;;;5.98;72.44;98796.78;4993274;28;20031;-83
2020/12/07 04:51:41;;;;;;;24.20;12.80;;;;;;;6.14;72.09;98805.13;4992943;28;20026;-83
2020/12/07 04:54:08;;;;;;;22.42;11.40;;;;;;;6.02;71.73;98810.41;4992922;28;20023;-83
2020/12/07 04:56:34;;;;;;;20.50;11.35;;;;;;;6.09;71.19;98804.63;4981950;28;20100;-83
2020/12/07 04:59:01;;;;;;;22.48;12.05;;;;;;;6.10;71.61;98805.44;4987883;28;20113;-83
2020/12/07 05:01:26;;;;;;;17.42;9.82;;;;;;;6.11;71.16;98799.31;4992630;28;20035;-83
2020/12/07 05:03:52;;;;;;;17.13;9.88;;;;;;;6.18;71.39;98808.34;4991385;28;20366;-83
2020/12/07 05:06:19;;;;;;;17.88;10.23;;;;;;;6.27;72.00;98801.59;4992502;28;20030;-83
2020/12/07 05:08:45;;;;;;;15.10;7.97;;;;;;;6.28;71.10;98804.06;4992562;28;20546;-83
2020/12/07 05:11:11;;;;;;;16.58;9.32;;;;;;;6.35;71.59;98802.66;4986973;28;20035;-84
2020/12/07 05:13:41;;;;;;;19.05;10.23;;;;;;;6.44;71.77;98808.97;4972932;28;20033;-83
2020/12/07 05:16:06;;;;;;;17.27;10.02;;;;;;;6.56;71.65;98804.56;4971852;28;20026;-83
2020/12/07 05:18:33;;;;;;;30.50;16.60;;;;;;;6.57;71.70;98800.19;4973447;28;20038;-84
2020/12/07 05:20:59;;;;;;;28.02;15.70;;;;;;;6.64;71.47;98783.94;4989639;28;20109;-83
2020/12/07 05:23:24;;;;;;;26.42;14.10;;;;;;;6.73;71.12;98793.69;4992539;28;20069;-84
2020/12/07 05:25:50;;;;;;;27.30;13.95;;;;;;;6.73;70.95;98798.91;4992346;28;20062;-84
2020/12/07 05:28:27;;;;;;;29.58;14.88;;;;;;;6.81;71.92;98805.28;4992390;28;20030;-84
2020/12/07 05:30:52;;;;;;;25.90;14.68;;;;;;;6.79;70.21;98799.34;4992552;28;20023;-83
2020/12/07 05:33:18;;;;;;;24.75;13.52;;;;;;;6.87;71.39;98794.34;4992520;28;20357;-84
2020/12/07 05:35:53;;;;;;;25.75;14.95;;;;;;;6.91;70.57;98795.78;4977714;28;20030;-83
2020/12/07 05:38:19;;;;;;;30.15;16.13;;;;;;;6.90;71.08;98800.16;4992200;28;20038;-83
2020/12/07 05:40:45;;;;;;;26.40;15.10;;;;;;;7.02;70.95;98800.16;4992432;28;20037;-83
2020/12/07 05:43:12;;;;;;;29.55;16.58;;;;;;;6.96;69.85;98798.84;4992193;28;20022;-84
2020/12/07 05:45:40;;;;;;;24.45;15.13;;;;;;;6.96;70.44;98796.25;4992409;28;20058;-83
2020/12/07 05:48:07;;;;;;;28.30;14.48;;;;;;;6.64;71.31;98804.81;4974905;28;20126;-84
2020/12/07 05:50:37;;;;;;;23.75;13.10;;;;;;;6.52;71.07;98800.56;4972921;28;20089;-84
2020/12/07 05:53:04;;;;;;;20.27;12.82;;;;;;;6.77;71.14;98798.63;4973180;28;20023;-83
2020/12/07 05:55:30;;;;;;;23.73;13.68;;;;;;;6.92;71.02;98797.44;4972963;28;20062;-83
2020/12/07 05:58:22;;;;;;;22.13;13.55;;;;;;;6.92;69.76;98800.88;4973154;28;20054;-83
2020/12/07 06:00:51;;;;;;;19.88;12.80;;;;;;;6.98;70.82;98801.34;4975450;28;20086;-83
2020/12/07 06:03:17;;;;;;;17.23;11.20;;;;;;;6.92;70.32;98797.44;5002007;28;20090;-83
2020/12/07 06:05:45;;;;;;;15.52;11.23;;;;;;;6.93;70.08;98804.31;4999912;28;20038;-84
2020/12/07 06:08:18;;;;;;;18.85;12.60;;;;;;;6.89;69.96;98803.75;4994176;28;20026;-83
2020/12/07 06:10:50;;;;;;;22.88;15.70;;;;;;;6.85;69.07;98796.25;4995950;28;20057;-83
2020/12/07 06:13:21;;;;;;;22.27;14.95;;;;;;;6.83;69.52;98796.41;4994488;28;20439;-84
2020/12/07 06:15:47;;;;;;;21.23;14.88;;;;;;;6.78;69.97;98792.50;4993254;28;20070;-83
2020/12/07 06:18:27;;;;;;;19.75;13.48;;;;;;;6.82;70.03;98792.13;4976252;28;20030;-83
2020/12/07 06:21:03;;;;;;;20.52;13.45;;;;;;;6.76;69.90;98790.00;4976244;28;20019;-83
2020/12/07 06:23:36;;;;;;;22.80;14.52;;;;;;;6.70;70.41;98783.47;4975104;28;20073;-84
2020/12/07 06:26:04;;;;;;;18.35;12.75;;;;;;;6.69;69.68;98786.19;4974576;28;20070;-84
2020/12/07 06:28:31;;;;;;;20.48;13.68;;;;;;;6.61;69.87;98788.56;4975973;28;20376;-84
2020/12/07 06:31:05;;;;;;;21.70;13.52;;;;;;;6.56;70.08;98781.09;4981687;28;20027;-84
2020/12/07 06:33:37;;;;;;;22.40;13.65;;;;;;;6.54;69.59;98773.41;4994348;28;20028;-84
2020/12/07 06:36:02;;;;;;;;;;;;;;;6.54;70.43;98790.84;4996104;28;20025;-84
2020/12/07 06:38:38;;;;;;;21.70;14.93;;;;;;;6.50;70.06;98789.41;4995195;28;20284;-84
2020/12/07 06:41:03;;;;;;;27.20;17.27;;;;;;;6.49;70.02;98787.72;4993967;28;20022;-84
2020/12/07 06:43:33;;;;;;;30.90;18.17;;;;;;;6.40;71.28;98781.47;4993733;28;20468;-84
2020/12/07 06:45:58;;;;;;;28.00;17.67;;;;;;;6.40;70.70;98784.06;4986764;28;20109;-84
2020/12/07 06:48:25;;;;;;;29.38;18.02;;;;;;;6.50;70.23;98778.97;4975666;28;20038;-84
2020/12/07 06:50:53;;;;;;;27.92;17.45;;;;;;;6.39;69.75;98778.97;4975720;28;20027;-84
2020/12/07 06:53:24;;;;;;;28.30;18.70;;;;;;;6.53;69.12;98782.16;4975784;28;20026;-84
2020/12/07 06:55:49;;;;;;;25.35;15.60;;;;;;;6.43;71.13;98783.00;4975723;28;20074;-84
2020/12/07 06:58:38;;;;;;;27.77;15.77;;;;;;;6.50;71.01;98773.75;4975472;28;20019;-84
2020/12/07 07:01:14;;;;;;;27.92;17.67;;;;;;;6.45;71.10;98768.88;4986278;28;20519;-84
2020/12/07 07:03:50;;;;;;;23.48;14.75;;;;;;;6.55;70.42;98769.81;4985982;28;20366;-83
2020/12/07 07:06:20;;;;;;;24.73;15.32;;;;;;;6.57;71.24;98776.72;4975358;28;20035;-84
2020/12/07 07:08:46;;;;;;;27.10;16.88;;;;;;;6.57;71.38;98772.31;4974096;28;20023;-84
2020/12/07 07:11:12;;;;;;;25.65;16.30;;;;;;;6.50;70.91;98765.94;4974171;28;20378;-84
2020/12/07 07:13:38;;;;;;;27.67;17.50;;;;;;;6.44;70.71;98762.03;4975237;28;20027;-84
2020/12/07 07:16:05;;;;;;;24.80;15.55;;;;;;;6.46;71.57;98760.13;4975065;28;20037;-84
2020/12/07 07:18:30;;;;;;;25.48;15.43;;;;;;;6.50;70.37;98758.94;4982660;28;20042;-84
2020/12/07 07:21:00;;;;;;;23.08;14.68;;;;;;;6.47;69.66;98753.13;4994786;28;20049;-84
2020/12/07 07:23:26;;;;;;;20.88;13.73;;;;;;;6.28;70.33;98746.75;4994685;28;20396;-84
2020/12/07 07:26:02;;;;;;;21.55;13.50;;;;;;;6.27;69.16;98745.06;4994699;28;20035;-84
2020/12/07 07:28:28;;;;;;;20.95;13.05;;;;;;;6.17;69.68;98732.88;4994658;28;20026;-84
2020/12/07 07:30:53;;;;;;;18.92;12.13;;;;;;;6.00;69.29;98736.75;4984418;28;20073;-82
2020/12/07 07:33:19;;;;;;;23.50;13.27;;;;;;;5.96;70.26;98741.34;4974899;28;20114;-82
2020/12/07 07:36:54;;;;;;;21.60;12.75;;;;;;;5.84;68.84;98737.03;5069712;28;20387;-88
2020/12/07 07:39:19;;;;;;;21.65;12.63;;;;;;;5.78;68.74;98735.72;5063524;28;20041;-87
2020/12/07 07:41:46;;;;;;;20.70;11.35;;;;;;;5.80;69.72;98752.06;5059886;28;20045;-87
2020/12/07 07:44:15;;;;;;;17.13;10.77;;;;;;;5.72;69.64;98754.41;5048957;28;20394;-87
2020/12/07 07:46:41;;;;;;;18.48;11.02;;;;;;;5.61;70.66;98751.75;5048833;28;20025;-87
2020/12/07 07:52:44;;;;;;;23.30;10.98;;;;;;;5.52;70.39;98756.72;5026802;28;20034;-87
2020/12/07 08:05:53;;;;;;;16.08;8.82;;;;;;;5.23;70.34;98768.41;5054238;28;20535;-87
2020/12/07 08:16:42;;;;;;;18.63;9.70;;;;;;;5.37;71.15;98786.44;5068380;28;20386;-89
2020/12/07 08:19:22;;;;;;;17.52;9.82;;;;;;;5.39;69.48;98786.34;5067216;28;20111;-89
2020/12/07 08:21:47;;;;;;;17.77;9.30;;;;;;;5.43;70.33;98790.38;5048682;28;20025;-89
2020/12/07 08:24:12;;;;;;;19.92;10.60;;;;;;;5.46;70.84;98779.75;5049148;28;20116;-90
2020/12/07 08:26:42;;;;;;;17.70;10.10;;;;;;;5.47;70.15;98778.81;5048628;28;20068;-86
2020/12/07 08:29:08;;;;;;;19.77;11.40;;;;;;;5.51;71.19;98777.63;5055026;28;20032;-87
2020/12/07 08:31:35;;;;;;;18.42;10.70;;;;;;;5.45;70.34;98776.34;5066539;28;20041;-86
2020/12/07 08:34:09;;;;;;;23.08;14.15;;;;;;;5.21;72.02;98778.91;5048059;28;20045;-87
2020/12/07 08:36:35;;;;;;;19.38;10.70;;;;;;;5.47;71.99;98782.25;5056457;28;20078;-88
2020/12/07 08:39:01;;;;;;;24.60;12.15;;;;;;;5.43;71.00;98775.63;5069179;28;20024;-88
2020/12/07 08:41:29;;;;;;;23.10;11.98;;;;;;;5.65;71.34;98774.88;5069360;28;20021;-87
2020/12/07 08:43:58;;;;;;;20.30;11.13;;;;;;;5.78;70.80;98774.78;5068389;28;20549;-86
2020/12/07 08:46:25;;;;;;;18.52;11.07;;;;;;;5.85;70.48;98765.59;5064261;28;20018;-86
2020/12/07 08:48:51;;;;;;;20.17;11.48;;;;;;;5.97;70.36;98763.03;5040659;28;20032;-86
2020/12/07 08:51:22;;;;;;;21.08;10.88;;;;;;;6.02;69.69;98773.94;5048639;28;20019;-86
2020/12/07 08:53:47;;;;;;;17.08;10.38;;;;;;;5.98;70.03;98767.28;5044790;28;20025;-85
2020/12/07 08:56:13;;;;;;;20.95;12.27;;;;;;;5.85;70.94;98768.19;5039255;28;20036;-86
2020/12/07 08:58:39;;;;;;;24.63;12.13;;;;;;;5.84;70.61;98758.69;5054828;28;20477;-86
2020/12/07 09:01:06;;;;;;;21.63;11.88;;;;;;;5.82;69.19;98765.78;5054952;28;20059;-87
2020/12/07 09:03:37;;;;;;;22.58;12.20;;;;;;;5.74;68.95;98762.94;5056450;28;20036;-88
2020/12/07 09:06:04;;;;;;;19.10;10.95;;;;;;;5.84;69.83;98763.91;5054438;28;20025;-87
2020/12/07 09:08:30;;;;;;;18.83;10.20;;;;;;;5.89;69.75;98768.78;5051945;28;20044;-87
2020/12/07 09:10:56;;;;;;;17.27;10.30;;;;;;;5.81;69.14;98764.16;5054518;28;20029;-86
2020/12/07 09:13:25;;;;;;;21.60;11.07;;;;;;;5.91;69.91;98770.31;5053065;28;20390;-86
2020/12/07 09:15:52;;;;;;;19.75;11.02;;;;;;;5.86;69.63;98782.03;5048943;28;20033;-86
2020/12/07 09:18:17;;;;;;;19.58;11.00;;;;;;;5.97;69.91;98787.31;5038893;28;20648;-86
2020/12/07 09:20:43;;;;;;;18.95;9.95;;;;;;;6.04;69.48;98788.53;5035780;28;20026;-86
2020/12/07 09:23:08;;;;;;;20.30;12.80;;;;;;;5.94;69.00;98775.31;5046209;28;20025;-86
2020/12/07 09:25:34;;;;;;;18.98;10.63;;;;;;;5.98;70.16;98780.31;5042838;28;20028;-85
2020/12/07 09:27:59;;;;;;;18.02;10.07;;;;;;;5.97;69.13;98778.69;5053674;28;20029;-85
2020/12/07 09:30:25;;;;;;;22.33;10.95;;;;;;;6.12;69.76;98778.34;5054344;28;20090;-85
2020/12/07 09:32:50;;;;;;;25.15;11.68;;;;;;;6.15;69.19;98782.50;5054125;28;20017;-87
2020/12/07 09:35:16;;;;;;;16.85;10.10;;;;;;;6.25;69.60;98782.63;5053531;28;20025;-87
2020/12/07 09:37:41;;;;;;;19.70;11.10;;;;;;;6.12;69.28;98772.28;5042213;28;20037;-85
2020/12/07 09:40:10;;;;;;;21.90;11.90;;;;;;;6.22;69.62;98782.84;5034442;28;20025;-88
2020/12/07 09:42:36;;;;;;;24.83;11.27;;;;;;;6.02;69.47;98782.56;5048323;28;20048;-88
2020/12/07 09:45:02;;;;;;;20.75;12.13;;;;;;;6.23;70.03;98780.13;5037931;28;20124;-88
2020/12/07 09:47:27;;;;;;;20.10;10.93;;;;;;;6.39;69.30;98779.78;5044625;28;20025;-87
2020/12/07 09:49:53;;;;;;;23.17;11.20;;;;;;;6.36;68.90;98790.47;5044009;28;20025;-87
2020/12/07 09:52:18;;;;;;;17.23;9.77;;;;;;;6.18;68.95;98787.47;5043731;28;20043;-87
2020/12/07 09:54:46;;;;;;;20.45;11.18;;;;;;;6.05;68.71;98781.53;5052019;28;20064;-86
2020/12/07 09:57:11;;;;;;;18.23;11.07;;;;;;;6.34;69.10;98790.56;5065450;28;20025;-85
2020/12/07 09:59:37;;;;;;;18.33;9.60;;;;;;;6.57;69.40;98784.53;5071320;28;20020;-86
2020/12/07 10:02:02;;;;;;;21.30;10.73;;;;;;;6.66;69.23;98782.06;5057886;28;20538;-85
2020/12/07 10:04:28;;;;;;;18.45;10.05;;;;;;;6.67;69.46;98780.25;5050579;28;20017;-84
2020/12/07 10:06:54;;;;;;;19.63;10.90;;;;;;;6.58;69.31;98784.44;5043023;28;20364;-86
2020/12/07 10:09:20;;;;;;;15.77;9.60;;;;;;;6.94;68.10;98787.72;5044177;28;20027;-86
2020/12/07 10:11:46;;;;;;;17.73;9.63;;;;;;;7.05;68.44;98774.66;5051357;28;20128;-86
2020/12/07 10:14:12;;;;;;;16.90;9.25;;;;;;;7.24;68.31;98776.59;5053394;28;20569;-86
2020/12/07 10:16:41;;;;;;;17.25;10.05;;;;;;;7.38;68.53;98783.34;5046642;28;20025;-86
2020/12/07 10:19:06;;;;;;;15.80;10.35;;;;;;;7.37;66.97;98786.91;5054416;28;20111;-86
2020/12/07 10:21:33;;;;;;;15.73;8.95;;;;;;;7.55;67.41;98785.41;5048247;28;20052;-86
2020/12/07 10:23:59;;;;;;;17.02;9.90;;;;;;;7.58;66.03;98789.53;5053207;28;20471;-86
2020/12/07 10:26:25;;;;;;;19.35;11.05;;;;;;;7.57;65.85;98771.41;5050771;28;20046;-86
2020/12/07 10:28:54;;;;;;;19.20;10.38;;;;;;;7.55;65.88;98774.97;5034463;28;20025;-86
2020/12/07 10:31:20;;;;;;;17.80;9.45;;;;;;;7.59;66.85;98790.41;5033298;28;20025;-86
2020/12/07 10:33:46;;;;;;;22.08;9.25;;;;;;;7.60;64.84;98789.44;5032453;28;20025;-85
2020/12/07 10:36:11;;;;;;;21.50;11.57;;;;;;;7.68;65.43;98779.19;5040035;28;20029;-85
2020/12/07 10:38:37;;;;;;;20.92;10.75;;;;;;;7.63;65.92;98787.41;5047574;28;20364;-85
2020/12/07 10:41:02;;;;;;;20.33;11.55;;;;;;;7.54;66.57;98770.72;5048354;28;20435;-86
2020/12/07 10:43:30;;;;;;;23.75;12.32;;;;;;;7.64;65.53;98783.00;5047626;28;20029;-85
2020/12/07 10:45:55;;;;;;;21.50;11.82;;;;;;;7.73;65.75;98771.81;5046660;28;21105;-86
2020/12/07 10:48:21;;;;;;;20.58;11.98;;;;;;;7.73;64.89;98777.84;5031984;28;20041;-85
2020/12/07 10:50:46;;;;;;;21.55;13.15;;;;;;;7.55;65.85;98779.38;5044621;28;20040;-85
2020/12/07 10:53:11;;;;;;;23.10;13.43;;;;;;;7.44;66.32;98772.38;5046721;28;20020;-86
2020/12/07 10:55:37;;;;;;;23.35;13.15;;;;;;;7.42;66.26;98765.63;5047967;28;20025;-86
2020/12/07 10:58:02;;;;;;;28.90;15.02;;;;;;;7.24;67.18;98768.78;5044130;28;20068;-86
2020/12/07 11:00:27;;;;;;;26.73;14.02;;;;;;;7.38;66.93;98761.63;5033064;28;20036;-87
2020/12/07 11:02:53;;;;;;;24.23;13.50;;;;;;;7.30;66.75;98762.25;5049739;28;20036;-87
2020/12/07 11:05:18;;;;;;;24.48;13.80;;;;;;;7.25;67.27;98753.97;5050749;28;20486;-87
2020/12/07 11:07:46;;;;;;;27.73;15.40;;;;;;;7.13;68.16;98743.56;5047970;28;20040;-86
2020/12/07 11:10:12;;;;;;;29.33;15.68;;;;;;;7.29;67.80;98750.16;5045624;28;20032;-86
2020/12/07 11:12:41;;;;;;;28.30;14.50;;;;;;;7.45;66.80;98760.19;5034496;28;20029;-86
2020/12/07 11:15:06;;;;;;;28.85;15.18;;;;;;;7.24;68.72;98747.91;5033839;28;20025;-85
2020/12/07 11:17:32;;;;;;;29.25;15.38;;;;;;;7.37;66.76;98747.75;5047513;28;20433;-85
2020/12/07 11:19:57;;;;;;;28.00;14.50;;;;;;;7.45;67.46;98739.28;5032213;28;20036;-85
2020/12/07 11:22:22;;;;;;;26.98;15.02;;;;;;;7.28;67.03;98756.31;5032247;28;20033;-86
2020/12/07 11:24:48;;;;;;;27.40;15.32;;;;;;;7.44;66.04;98748.06;5032303;28;20051;-85
2020/12/07 11:27:13;;;;;;;27.05;14.10;;;;;;;7.44;66.49;98745.44;5035766;28;20032;-85
2020/12/07 11:29:39;;;;;;;28.42;15.57;;;;;;;7.45;66.97;98747.94;5032684;28;20053;-85
2020/12/07 11:32:04;;;;;;;27.08;12.75;;;;;;;7.41;67.39;98735.28;5038703;28;20463;-86
2020/12/07 11:34:29;;;;;;;30.08;15.98;;;;;;;7.37;67.00;98733.88;5049150;28;20030;-85
2020/12/07 11:36:55;;;;;;;31.30;15.10;;;;;;;7.27;66.78;98728.56;5044246;28;20029;-86
2020/12/07 11:44:28;;;;;;;27.20;14.27;;;;;;;7.45;67.72;98732.28;5036612;28;20037;-85
2020/12/07 11:49:23;;;;;;;31.52;16.13;;;;;;;7.32;67.81;98742.06;5041309;28;20094;-86
2020/12/07 11:51:49;;;;;;;26.88;13.98;;;;;;;7.45;67.86;98737.50;5036548;28;20024;-85
2020/12/07 11:54:14;;;;;;;20.23;11.57;;;;;;;7.54;66.93;98728.94;5038550;28;20111;-85
2020/12/07 11:56:40;;;;;;;24.75;13.18;;;;;;;7.44;67.54;98727.19;5044823;28;20033;-86